createdAt,value
2022-12-04T00:00:53.229Z,-5.34
2022-12-04T00:03:20.276Z,-5.40
2022-12-04T00:05:46.976Z,-5.31
2022-12-04T00:08:13.759Z,-5.42
2022-12-04T00:10:44.056Z,-5.30
2022-12-04T00:13:10.743Z,-5.33
2022-12-04T00:15:42.029Z,-5.32
2022-12-04T00:18:08.930Z,-5.36
2022-12-04T00:20:39.349Z,-5.37
2022-12-04T00:23:06.026Z,-5.40
2022-12-04T00:25:37.757Z,-5.38
2022-12-04T00:28:06.028Z,-5.38
2022-12-04T00:30:32.898Z,-5.46
2022-12-04T00:32:59.577Z,-5.37
2022-12-04T00:35:26.241Z,-5.37
2022-12-04T00:37:53.103Z,-5.39
2022-12-04T00:40:19.878Z,-5.39
2022-12-04T00:42:46.548Z,-5.47
2022-12-04T00:45:13.421Z,-5.49
2022-12-04T00:47:40.052Z,-5.40
2022-12-04T00:50:07.463Z,-5.37
2022-12-04T00:52:34.357Z,-5.39
2022-12-04T00:55:01.041Z,-5.37
2022-12-04T00:57:27.679Z,-5.39
2022-12-04T00:59:54.761Z,-5.37
2022-12-04T01:02:21.718Z,-5.37
2022-12-04T01:04:48.383Z,-5.47
2022-12-04T01:07:15.398Z,-5.38
2022-12-04T01:09:42.012Z,-5.38
2022-12-04T01:12:08.674Z,-5.37
2022-12-04T01:14:35.545Z,-5.45
2022-12-04T01:17:02.330Z,-5.40
2022-12-04T01:19:29.105Z,-5.38
2022-12-04T01:21:55.971Z,-5.37
2022-12-04T01:24:22.572Z,-5.41
2022-12-04T01:26:49.191Z,-5.45
2022-12-04T01:29:16.081Z,-5.51
2022-12-04T01:31:42.741Z,-5.47
2022-12-04T01:34:09.506Z,-5.52
2022-12-04T01:36:36.497Z,-5.44
2022-12-04T01:39:03.658Z,-5.57
2022-12-04T01:41:32.049Z,-5.49
2022-12-04T01:44:24.436Z,-5.52
2022-12-04T01:46:56.164Z,-5.62
2022-12-04T01:49:34.058Z,-5.56
2022-12-04T01:52:10.177Z,-5.66
2022-12-04T01:54:42.180Z,-5.58
2022-12-04T01:57:13.783Z,-5.59
2022-12-04T01:59:47.838Z,-5.60
2022-12-04T02:02:19.006Z,-5.64
2022-12-04T02:04:46.703Z,-5.63
2022-12-04T02:07:13.349Z,-5.66
2022-12-04T02:09:41.940Z,-5.68
2022-12-04T02:12:17.796Z,-5.74
2022-12-04T02:15:02.970Z,-5.77
2022-12-04T02:18:01.334Z,-5.80
2022-12-04T02:20:42.960Z,-5.80
2022-12-04T02:23:57.449Z,-5.82
2022-12-04T02:26:40.417Z,-5.78
2022-12-04T02:29:16.098Z,-5.77
2022-12-04T02:32:07.892Z,-5.78
2022-12-04T02:35:08.721Z,-5.81
2022-12-04T02:37:38.989Z,-5.87
2022-12-04T02:40:12.208Z,-5.91
2022-12-04T02:42:44.496Z,-5.92
2022-12-04T02:45:26.244Z,-5.95
2022-12-04T02:47:55.225Z,-5.97
2022-12-04T02:50:24.318Z,-5.97
2022-12-04T02:53:14.221Z,-5.97
2022-12-04T02:55:46.352Z,-6.01
2022-12-04T02:58:41.122Z,-6.03
2022-12-04T03:01:19.732Z,-6.03
2022-12-04T03:04:04.312Z,-6.01
2022-12-04T03:06:36.217Z,-6.03
2022-12-04T03:09:10.374Z,-6.02
2022-12-04T03:11:40.443Z,-6.07
2022-12-04T03:14:13.131Z,-6.11
2022-12-04T03:16:42.538Z,-6.22
2022-12-04T03:19:14.290Z,-6.13
2022-12-04T03:21:48.023Z,-6.15
2022-12-04T03:24:23.947Z,-6.16
2022-12-04T03:26:59.869Z,-6.17
2022-12-04T03:29:48.887Z,-6.16
2022-12-04T03:32:27.513Z,-6.19
2022-12-04T03:35:14.839Z,-6.24
2022-12-04T03:38:01.185Z,-6.29
2022-12-04T03:40:44.361Z,-6.30
2022-12-04T03:43:26.818Z,-6.30
2022-12-04T03:46:08.027Z,-6.30
2022-12-04T03:48:43.498Z,-6.41
2022-12-04T03:51:27.192Z,-6.41
2022-12-04T03:53:58.057Z,-6.34
2022-12-04T03:56:29.468Z,-6.35
2022-12-04T03:59:03.349Z,-6.35
2022-12-04T04:01:38.867Z,-6.36
2022-12-04T04:04:10.357Z,-6.33
2022-12-04T04:06:41.530Z,-6.31
2022-12-04T04:09:19.227Z,-6.33
2022-12-04T04:11:50.133Z,-6.31
2022-12-04T04:14:46.619Z,-6.41
2022-12-04T04:17:38.627Z,-6.29
2022-12-04T04:20:30.826Z,-6.29
2022-12-04T04:23:18.648Z,-6.28
2022-12-04T04:25:47.266Z,-6.28
2022-12-04T04:28:28.167Z,-6.35
2022-12-04T04:31:02.868Z,-6.35
2022-12-04T04:33:31.329Z,-6.39
2022-12-04T04:36:15.184Z,-6.51
2022-12-04T04:38:50.821Z,-6.51
2022-12-04T04:41:27.233Z,-6.44
2022-12-04T04:44:11.910Z,-6.47
2022-12-04T04:46:45.224Z,-6.50
2022-12-04T04:49:14.654Z,-6.53
2022-12-04T04:51:42.416Z,-6.52
2022-12-04T04:54:12.213Z,-6.54
2022-12-04T04:56:43.249Z,-6.53
2022-12-04T04:59:10.685Z,-6.51
2022-12-04T05:01:39.095Z,-6.47
2022-12-04T05:04:06.844Z,-6.44
2022-12-04T05:06:34.015Z,-6.42
2022-12-04T05:09:00.739Z,-6.41
2022-12-04T05:11:27.472Z,-6.48
2022-12-04T05:13:54.447Z,-6.39
2022-12-04T05:16:21.225Z,-6.44
2022-12-04T05:19:06.704Z,-6.57
2022-12-04T05:21:34.325Z,-6.53
2022-12-04T05:24:01.631Z,-6.58
2022-12-04T05:26:28.402Z,-6.61
2022-12-04T05:28:55.289Z,-6.63
2022-12-04T05:31:22.122Z,-6.65
2022-12-04T05:33:48.924Z,-6.67
2022-12-04T05:36:15.868Z,-6.79
2022-12-04T05:38:42.714Z,-6.67
2022-12-04T05:41:09.350Z,-6.67
2022-12-04T05:43:37.071Z,-6.65
2022-12-04T05:46:06.245Z,-6.74
2022-12-04T05:48:34.839Z,-6.70
2022-12-04T05:51:09.523Z,-6.60
2022-12-04T05:53:37.025Z,-6.62
2022-12-04T05:56:05.786Z,-6.64
2022-12-04T05:58:36.188Z,-6.68
2022-12-04T06:01:17.895Z,-6.67
2022-12-04T06:03:45.361Z,-6.69
2022-12-04T06:06:22.227Z,-6.69
2022-12-04T06:08:55.112Z,-6.69
2022-12-04T06:11:24.341Z,-6.79
2022-12-04T06:13:51.873Z,-6.71
2022-12-04T06:16:30.411Z,-6.74
2022-12-04T06:19:03.322Z,-6.77
2022-12-04T06:21:32.392Z,-6.75
2022-12-04T06:23:59.583Z,-6.75
2022-12-04T06:26:26.402Z,-6.73
2022-12-04T06:28:54.675Z,-6.69
2022-12-04T06:31:21.559Z,-6.66
2022-12-04T06:33:48.658Z,-6.63
2022-12-04T06:36:18.352Z,-6.61
2022-12-04T06:38:45.392Z,-6.56
2022-12-04T06:41:17.356Z,-6.56
2022-12-04T06:43:44.481Z,-6.55
2022-12-04T06:46:12.686Z,-6.56
2022-12-04T06:48:39.849Z,-6.56
2022-12-04T06:51:16.197Z,-6.69
2022-12-04T06:53:43.543Z,-6.64
2022-12-04T06:56:14.344Z,-6.67
2022-12-04T06:58:40.962Z,-6.68
2022-12-04T07:01:10.273Z,-6.70
2022-12-04T07:03:37.808Z,-6.72
2022-12-04T07:06:23.929Z,-6.72
2022-12-04T07:08:54.400Z,-6.68
2022-12-04T07:11:22.220Z,-6.70
2022-12-04T07:13:50.568Z,-6.74
2022-12-04T07:16:20.798Z,-6.78
2022-12-04T07:18:53.901Z,-6.88
2022-12-04T07:21:24.856Z,-6.78
2022-12-04T07:23:54.171Z,-6.78
2022-12-04T07:26:21.265Z,-6.92
2022-12-04T07:28:48.447Z,-6.79
2022-12-04T07:31:18.641Z,-6.75
2022-12-04T07:33:46.164Z,-6.73
2022-12-04T07:36:15.391Z,-6.83
2022-12-04T07:38:42.541Z,-6.68
2022-12-04T07:41:11.498Z,-6.68
2022-12-04T07:43:38.685Z,-6.68
2022-12-04T07:46:08.570Z,-6.75
2022-12-04T07:48:35.908Z,-6.86
2022-12-04T07:51:07.969Z,-6.82
2022-12-04T07:53:35.615Z,-6.84
2022-12-04T07:56:03.961Z,-6.97
2022-12-04T07:58:30.759Z,-6.90
2022-12-04T08:01:20.573Z,-6.89
2022-12-04T08:03:49.433Z,-6.84
2022-12-04T08:06:18.391Z,-6.81
2022-12-04T08:08:45.831Z,-6.77
2022-12-04T08:11:16.058Z,-6.88
2022-12-04T08:13:43.154Z,-6.75
2022-12-04T08:16:12.285Z,-6.79
2022-12-04T08:18:40.293Z,-6.78
2022-12-04T08:21:16.013Z,-6.78
2022-12-04T08:23:44.284Z,-6.73
2022-12-04T08:26:11.931Z,-6.72
2022-12-04T08:28:39.190Z,-6.71
2022-12-04T08:31:13.812Z,-6.73
2022-12-04T08:33:42.039Z,-6.74
2022-12-04T08:36:11.377Z,-6.74
2022-12-04T08:38:38.714Z,-6.69
2022-12-04T08:41:07.076Z,-6.63
2022-12-04T08:43:34.808Z,-6.65
2022-12-04T08:46:04.913Z,-6.66
2022-12-04T08:48:32.260Z,-6.66
2022-12-04T08:50:59.718Z,-6.77
2022-12-04T08:53:26.695Z,-6.66
2022-12-04T08:55:53.516Z,-6.71
2022-12-04T08:58:20.936Z,-6.56
2022-12-04T09:00:48.195Z,-6.54
2022-12-04T09:03:22.674Z,-6.55
2022-12-04T09:05:59.018Z,-6.56
2022-12-04T09:08:25.733Z,-6.53
2022-12-04T09:10:52.395Z,-6.68
2022-12-04T09:13:19.334Z,-6.56
2022-12-04T09:15:45.964Z,-6.50
2022-12-04T09:18:13.220Z,-6.52
2022-12-04T09:20:40.175Z,-6.34
2022-12-04T09:23:06.866Z,-6.35
2022-12-04T09:25:37.855Z,-6.35
2022-12-04T09:28:05.114Z,-6.42
2022-12-04T09:30:31.927Z,-6.44
2022-12-04T09:32:58.661Z,-6.47
2022-12-04T09:35:25.631Z,-6.49
2022-12-04T09:37:52.343Z,-6.55
2022-12-04T09:40:30.731Z,-6.49
2022-12-04T09:43:18.280Z,-6.51
2022-12-04T09:45:51.268Z,-6.48
2022-12-04T09:48:21.129Z,-6.44
2022-12-04T09:50:49.582Z,-6.48
2022-12-04T09:53:21.376Z,-6.54
2022-12-04T09:55:56.371Z,-6.48
2022-12-04T09:58:32.545Z,-6.41
2022-12-04T10:01:03.194Z,-6.41
2022-12-04T10:03:31.631Z,-6.39
2022-12-04T10:06:12.123Z,-6.46
2022-12-04T10:08:41.444Z,-6.37
2022-12-04T10:11:32.223Z,-6.42
2022-12-04T10:14:18.057Z,-6.44
2022-12-04T10:17:07.703Z,-6.48
2022-12-04T10:19:54.329Z,-6.53
2022-12-04T10:22:49.497Z,-6.62
2022-12-04T10:25:24.174Z,-6.50
2022-12-04T10:28:03.545Z,-6.50
2022-12-04T10:30:34.634Z,-6.45
2022-12-04T10:33:25.552Z,-6.38
2022-12-04T10:35:54.263Z,-6.31
2022-12-04T10:38:33.144Z,-6.31
2022-12-04T10:41:07.656Z,-6.14
2022-12-04T10:43:44.196Z,-6.09
2022-12-04T10:46:15.619Z,-6.00
2022-12-04T10:48:46.545Z,-5.94
2022-12-04T10:51:19.879Z,-5.90
2022-12-04T10:53:49.386Z,-5.81
2022-12-04T10:56:22.683Z,-5.77
2022-12-04T10:59:16.023Z,-5.67
2022-12-04T11:01:43.238Z,-5.59
2022-12-04T11:04:20.786Z,-5.49
2022-12-04T11:06:50.412Z,-5.40
2022-12-04T11:09:23.869Z,-5.32
2022-12-04T11:11:52.285Z,-5.25
2022-12-04T11:14:23.238Z,-5.26
2022-12-04T11:17:01.416Z,-5.10
2022-12-04T11:19:31.639Z,-5.17
2022-12-04T11:22:04.828Z,-5.04
2022-12-04T11:24:35.734Z,-5.02
2022-12-04T11:27:04.651Z,-5.19
2022-12-04T11:29:51.939Z,-5.08
2022-12-04T11:32:28.782Z,-4.96
2022-12-04T11:34:59.949Z,-4.89
2022-12-04T11:37:30.555Z,-4.85
2022-12-04T11:39:58.570Z,-4.82
2022-12-04T11:42:28.721Z,-4.79
2022-12-04T11:44:58.486Z,-4.76
2022-12-04T11:47:28.214Z,-4.71
2022-12-04T11:50:26.562Z,-4.69
2022-12-04T11:53:11.915Z,-4.75
2022-12-04T11:55:51.891Z,-4.64
2022-12-04T11:58:27.825Z,-4.63
2022-12-04T12:01:07.037Z,-4.62
2022-12-04T12:03:40.496Z,-4.65
2022-12-04T12:06:29.951Z,-4.65
2022-12-04T12:09:13.970Z,-4.71
2022-12-04T12:12:02.467Z,-4.65
2022-12-04T12:14:45.748Z,-4.71
2022-12-04T12:17:37.525Z,-4.74
2022-12-04T12:20:21.827Z,-4.59
2022-12-04T12:22:59.916Z,-4.66
2022-12-04T12:25:51.698Z,-4.52
2022-12-04T12:28:25.145Z,-4.49
2022-12-04T12:31:25.655Z,-4.48
2022-12-04T12:34:00.442Z,-4.44
2022-12-04T12:36:33.972Z,-4.46
2022-12-04T12:39:07.305Z,-4.52
2022-12-04T12:41:45.718Z,-4.43
2022-12-04T12:44:36.989Z,-4.45
2022-12-04T12:47:15.025Z,-4.45
2022-12-04T12:49:58.126Z,-4.46
2022-12-04T12:52:55.724Z,-4.50
2022-12-04T12:55:27.184Z,-4.48
2022-12-04T12:58:09.890Z,-4.60
2022-12-04T13:00:47.886Z,-4.51
2022-12-04T13:03:30.185Z,-4.53
2022-12-04T13:06:03.724Z,-4.56
2022-12-04T13:08:39.206Z,-4.57
2022-12-04T13:11:12.727Z,-4.62
2022-12-04T13:13:45.810Z,-4.60
2022-12-04T13:16:21.680Z,-4.60
2022-12-04T13:18:55.376Z,-4.62
2022-12-04T13:21:35.814Z,-4.69
2022-12-04T13:24:56.835Z,-4.67
2022-12-04T13:27:28.868Z,-4.66
2022-12-04T13:30:11.524Z,-4.66
2022-12-04T13:32:57.005Z,-4.67
2022-12-04T13:35:41.742Z,-4.68
2022-12-04T13:38:35.258Z,-4.72
2022-12-04T13:41:10.377Z,-4.73
2022-12-04T13:43:46.913Z,-4.73
2022-12-04T13:46:25.718Z,-4.75
2022-12-04T13:48:52.672Z,-4.84
2022-12-04T13:51:34.121Z,-4.78
2022-12-04T13:54:36.574Z,-4.80
2022-12-04T13:57:29.722Z,-4.81
2022-12-04T14:00:25.436Z,-4.79
2022-12-04T14:02:55.893Z,-4.89
2022-12-04T14:05:28.917Z,-5.04
2022-12-04T14:08:07.835Z,-4.90
2022-12-04T14:10:38.016Z,-4.84
2022-12-04T14:13:23.624Z,-4.87
2022-12-04T14:16:03.885Z,-4.86
2022-12-04T14:18:31.308Z,-4.92
2022-12-04T14:21:01.993Z,-4.90
2022-12-04T14:23:42.636Z,-4.91
2022-12-04T14:27:09.617Z,-4.96
2022-12-04T14:29:30.510Z,-4.98
2022-12-04T14:32:08.471Z,-5.11
2022-12-04T14:34:37.592Z,-5.05
2022-12-04T14:37:05.840Z,-5.13
2022-12-04T14:39:34.677Z,-5.07
2022-12-04T14:42:06.181Z,-5.06
2022-12-04T14:44:33.380Z,-5.08
2022-12-04T14:47:22.034Z,-5.07
2022-12-04T14:50:18.197Z,-5.07
2022-12-04T14:52:51.175Z,-5.07
2022-12-04T14:55:32.286Z,-5.07
2022-12-04T14:58:32.491Z,-5.07
2022-12-04T15:01:02.464Z,-5.07
2022-12-04T15:03:34.531Z,-5.07
2022-12-04T15:06:07.343Z,-5.07
2022-12-04T15:08:35.037Z,-5.21
2022-12-04T15:11:20.696Z,-5.10
2022-12-04T15:13:47.405Z,-5.11
2022-12-04T15:16:20.074Z,-5.10
2022-12-04T15:19:00.590Z,-5.22
2022-12-04T15:21:39.061Z,-5.20
2022-12-04T15:24:20.241Z,-5.11
2022-12-04T15:26:50.106Z,-5.11
2022-12-04T15:29:22.016Z,-5.13
2022-12-04T15:31:56.734Z,-5.14
2022-12-04T15:34:55.125Z,-5.16
2022-12-04T15:37:26.763Z,-5.17
2022-12-04T15:39:54.594Z,-5.19
2022-12-04T15:42:24.253Z,-5.20
2022-12-04T15:45:01.077Z,-5.21
2022-12-04T15:47:33.316Z,-5.22
2022-12-04T15:50:31.335Z,-5.34
2022-12-04T15:53:05.451Z,-5.26
2022-12-04T15:55:37.495Z,-5.26
2022-12-04T15:58:29.057Z,-5.32
2022-12-04T16:00:59.989Z,-5.30
2022-12-04T16:03:31.175Z,-5.31
2022-12-04T16:06:23.941Z,-5.32
2022-12-04T16:08:54.133Z,-5.34
2022-12-04T16:11:20.860Z,-5.46
2022-12-04T16:13:50.210Z,-5.36
2022-12-04T16:16:22.268Z,-5.36
2022-12-04T16:18:49.160Z,-5.38
2022-12-04T16:21:18.754Z,-5.39
2022-12-04T16:23:45.814Z,-5.49
2022-12-04T16:26:19.933Z,-5.42
2022-12-04T16:28:47.682Z,-5.53
2022-12-04T16:31:16.211Z,-5.45
2022-12-04T16:33:43.037Z,-5.47
2022-12-04T16:36:12.768Z,-5.60
2022-12-04T16:38:39.497Z,-5.50
2022-12-04T16:41:06.931Z,-5.52
2022-12-04T16:43:33.811Z,-5.52
2022-12-04T16:46:01.789Z,-5.53
2022-12-04T16:48:29.701Z,-5.67
2022-12-04T16:50:56.620Z,-5.64
2022-12-04T16:53:23.398Z,-5.65
2022-12-04T16:55:51.864Z,-5.56
2022-12-04T16:58:20.319Z,-5.56
2022-12-04T17:00:54.246Z,-5.56
2022-12-04T17:03:31.993Z,-5.59
2022-12-04T17:06:00.420Z,-5.59
2022-12-04T17:08:28.264Z,-5.62
2022-12-04T17:10:55.235Z,-5.60
2022-12-04T17:13:22.608Z,-5.60
2022-12-04T17:15:50.003Z,-5.61
2022-12-04T17:18:20.980Z,-5.64
2022-12-04T17:20:48.393Z,-5.68
2022-12-04T17:23:15.404Z,-5.64
2022-12-04T17:25:42.096Z,-5.67
2022-12-04T17:28:08.813Z,-5.68
2022-12-04T17:30:36.559Z,-5.77
2022-12-04T17:33:04.664Z,-5.66
2022-12-04T17:35:31.597Z,-5.69
2022-12-04T17:38:05.411Z,-5.71
2022-12-04T17:40:32.742Z,-5.81
2022-12-04T17:42:59.814Z,-5.74
2022-12-04T17:45:26.736Z,-5.88
2022-12-04T17:47:53.507Z,-5.81
2022-12-04T17:50:20.433Z,-5.75
2022-12-04T17:52:47.197Z,-5.75
2022-12-04T17:55:13.982Z,-5.77
2022-12-04T17:57:41.158Z,-5.87
2022-12-04T18:00:08.445Z,-5.88
2022-12-04T18:02:39.051Z,-5.81
2022-12-04T18:05:06.119Z,-5.78
2022-12-04T18:07:32.860Z,-5.79
2022-12-04T18:10:00.242Z,-5.87
2022-12-04T18:12:27.565Z,-5.82
2022-12-04T18:14:54.165Z,-5.81
2022-12-04T18:17:21.783Z,-5.93
2022-12-04T18:19:48.721Z,-5.87
2022-12-04T18:22:15.380Z,-5.96
2022-12-04T18:24:42.101Z,-5.89
2022-12-04T18:27:09.478Z,-5.99
2022-12-04T18:29:36.321Z,-6.03
2022-12-04T18:32:03.207Z,-5.94
2022-12-04T18:34:30.228Z,-5.96
2022-12-04T18:36:57.252Z,-5.97
2022-12-04T18:39:25.674Z,-5.98
2022-12-04T18:41:56.464Z,-6.10
2022-12-04T18:44:23.784Z,-6.03
2022-12-04T18:46:50.645Z,-6.05
2022-12-04T18:49:17.522Z,-6.08
2022-12-04T18:51:49.650Z,-6.10
2022-12-04T18:54:21.688Z,-6.12
2022-12-04T18:56:48.499Z,-6.13
2022-12-04T18:59:21.127Z,-6.25
2022-12-04T19:01:50.497Z,-6.17
2022-12-04T19:04:19.480Z,-6.18
2022-12-04T19:06:51.375Z,-6.32
2022-12-04T19:09:35.475Z,-6.24
2022-12-04T19:12:08.985Z,-6.26
2022-12-04T19:14:35.935Z,-6.29
2022-12-04T19:17:02.733Z,-6.30
2022-12-04T19:19:31.826Z,-6.33
2022-12-04T19:21:59.219Z,-6.36
2022-12-04T19:24:25.883Z,-6.37
2022-12-04T19:26:54.016Z,-6.38
2022-12-04T19:29:21.205Z,-6.44
2022-12-04T19:31:47.945Z,-6.53
2022-12-04T19:34:14.753Z,-6.44
2022-12-04T19:36:42.678Z,-6.46
2022-12-04T19:39:09.536Z,-6.57
2022-12-04T19:41:37.419Z,-6.50
2022-12-04T19:44:20.087Z,-6.51
2022-12-04T19:46:51.196Z,-6.55
2022-12-04T19:49:18.602Z,-6.68
2022-12-04T19:51:45.481Z,-6.63
2022-12-04T19:54:13.601Z,-6.64
2022-12-04T19:56:40.564Z,-6.62
2022-12-04T19:59:07.922Z,-6.65
2022-12-04T20:01:35.573Z,-6.66
2022-12-04T20:04:05.825Z,-6.68
2022-12-04T20:06:38.897Z,-6.70
2022-12-04T20:09:09.207Z,-6.70
2022-12-04T20:11:36.540Z,-6.82
2022-12-04T20:14:05.208Z,-6.73
2022-12-04T20:16:34.231Z,-6.88
2022-12-04T20:19:03.921Z,-6.83
2022-12-04T20:21:31.959Z,-6.82
2022-12-04T20:24:01.967Z,-6.82
2022-12-04T20:26:35.643Z,-6.84
2022-12-04T20:29:03.549Z,-6.97
2022-12-04T20:31:33.392Z,-6.87
2022-12-04T20:34:01.906Z,-6.89
2022-12-04T20:36:31.031Z,-6.92
2022-12-04T20:38:59.092Z,-6.93
2022-12-04T20:41:28.037Z,-6.95
2022-12-04T20:43:55.898Z,-6.96
2022-12-04T20:46:25.919Z,-6.98
2022-12-04T20:48:53.710Z,-7.08
2022-12-04T20:51:28.717Z,-7.01
2022-12-04T20:53:58.148Z,-7.03
2022-12-04T20:56:29.871Z,-7.05
2022-12-04T20:59:02.557Z,-7.08
2022-12-04T21:01:30.000Z,-7.07
2022-12-04T21:03:59.301Z,-7.08
2022-12-04T21:06:34.439Z,-7.19
2022-12-04T21:09:12.347Z,-7.20
2022-12-04T21:11:46.926Z,-7.11
2022-12-04T21:14:37.879Z,-7.13
2022-12-04T21:17:06.773Z,-7.16
2022-12-04T21:19:34.192Z,-7.16
2022-12-04T21:22:01.072Z,-7.17
2022-12-04T21:24:28.669Z,-7.19
2022-12-04T21:26:56.298Z,-7.31
2022-12-04T21:29:23.395Z,-7.24
2022-12-04T21:31:50.215Z,-7.23
2022-12-04T21:34:18.292Z,-7.24
2022-12-04T21:36:46.390Z,-7.31
2022-12-04T21:39:15.008Z,-7.29
2022-12-04T21:42:00.854Z,-7.30
2022-12-04T21:44:27.924Z,-7.31
2022-12-04T21:46:54.897Z,-7.42
2022-12-04T21:49:21.915Z,-7.33
2022-12-04T21:51:57.673Z,-7.35
2022-12-04T21:54:26.700Z,-7.33
2022-12-04T21:56:54.034Z,-7.35
2022-12-04T21:59:20.670Z,-7.36
2022-12-04T22:01:47.631Z,-7.36
2022-12-04T22:04:14.920Z,-7.48
2022-12-04T22:06:41.882Z,-7.41
2022-12-04T22:09:10.974Z,-7.55
2022-12-04T22:11:39.160Z,-7.44
2022-12-04T22:14:05.783Z,-7.44
2022-12-04T22:16:36.912Z,-7.45
2022-12-04T22:19:06.889Z,-7.57
2022-12-04T22:21:33.607Z,-7.49
2022-12-04T22:24:01.917Z,-7.49
2022-12-04T22:26:30.105Z,-7.50
2022-12-04T22:28:57.676Z,-7.52
2022-12-04T22:31:27.047Z,-7.64
2022-12-04T22:33:55.781Z,-7.57
2022-12-04T22:36:25.573Z,-7.58
2022-12-04T22:39:08.658Z,-7.59
2022-12-04T22:41:37.358Z,-7.59
2022-12-04T22:44:04.593Z,-7.61
2022-12-04T22:46:31.649Z,-7.63
2022-12-04T22:48:59.436Z,-7.68
2022-12-04T22:51:27.049Z,-7.66
2022-12-04T22:53:56.144Z,-7.70
2022-12-04T22:56:25.967Z,-7.70
2022-12-04T22:58:53.541Z,-7.69
2022-12-04T23:01:28.673Z,-7.74
2022-12-04T23:03:56.319Z,-7.74
2022-12-04T23:06:25.308Z,-7.75
2022-12-04T23:09:06.273Z,-7.77
2022-12-04T23:11:33.967Z,-7.81
2022-12-04T23:14:04.302Z,-7.80
2022-12-04T23:16:32.830Z,-7.82
2022-12-04T23:18:59.881Z,-7.84
2022-12-04T23:21:27.852Z,-7.84
2022-12-04T23:23:55.521Z,-7.87
2022-12-04T23:26:26.574Z,-7.98
2022-12-04T23:28:53.337Z,-7.90
2022-12-04T23:31:20.088Z,-7.92
2022-12-04T23:33:47.144Z,-7.95
2022-12-04T23:36:14.356Z,-7.97
2022-12-04T23:38:42.450Z,-8.04
2022-12-04T23:41:15.223Z,-8.00
2022-12-04T23:43:44.318Z,-8.03
2022-12-04T23:46:12.817Z,-8.04
2022-12-04T23:48:41.564Z,-8.06
2022-12-04T23:51:09.755Z,-8.17
2022-12-04T23:53:36.929Z,-8.09
2022-12-04T23:56:08.213Z,-8.11
2022-12-04T23:58:36.109Z,-8.12
